Time;durP1;ratioP1;P1;durP2;ratioP2;P2;SDS_P1;SDS_P2;PMS_P1;PMS_P2;Temp;Humidity;BMP_temperature;BMP_pressure;BME280_temperature;BME280_humidity;BME280_pressure;Samples;Min_cycle;Max_cycle;Signal;HPM_P1;HPM_P2
2021/05/11 04:51:15;;;;;;;3.15;2.92;;;;;;;18.24;30.67;100810.16;1842398;77;22820;-72
2021/05/11 04:53:50;;;;;;;3.62;2.95;;;;;;;18.22;30.97;100814.23;1828910;77;22985;-75
2021/05/11 04:56:25;;;;;;;5.92;2.70;;;;;;;18.36;31.30;100829.49;1890386;76;22867;-74
2021/05/11 04:58:59;;;;;;;3.87;2.85;;;;;;;18.50;30.30;100823.98;1851213;76;22938;-66
2021/05/11 05:01:36;;;;;;;5.53;3.20;;;;;;;18.54;30.63;100822.31;1825288;76;27692;-67
2021/05/11 05:04:13;;;;;;;2.72;2.52;;;;;;;18.87;30.20;100814.09;1796740;77;22755;-67
2021/05/11 05:06:56;;;;;;;4.28;2.65;;;;;;;19.12;29.37;100816.48;1832352;77;22716;-62
2021/05/11 05:10:11;;;;;;;;;;;;;;;;;;;;;
2021/05/11 05:13:22;;;;;;;;;;;;;;;;;;;;;
2021/05/11 05:16:16;;;;;;;2.72;2.42;;;;;;;19.52;28.29;100810.20;1831892;76;24047;-71
2021/05/11 05:19:05;;;;;;;3.12;2.50;;;;;;;19.58;28.37;100799.14;1876060;75;23363;-62
2021/05/11 05:21:42;;;;;;;2.95;2.55;;;;;;;19.72;28.26;100794.50;1797124;77;22799;-64
2021/05/11 05:29:48;;;;;;;3.33;2.70;;;;;;;20.07;27.88;100800.82;1840168;76;28366;-70
2021/05/11 05:32:22;;;;;;;6.47;2.50;;;;;;;20.24;27.27;100800.25;1817531;77;22797;-67
2021/05/11 05:35:10;;;;;;;3.95;2.33;;;;;;;20.30;26.71;100807.68;1818579;78;21005;-70
2021/05/11 05:37:50;;;;;;;3.52;2.50;;;;;;;20.49;27.03;100806.48;1786845;77;22659;-71
2021/05/11 05:40:25;;;;;;;4.15;2.50;;;;;;;20.60;26.21;100811.70;1839664;77;23261;-64
2021/05/11 05:43:12;;;;;;;3.77;2.62;;;;;;;20.55;26.38;100801.99;1810483;78;21049;-65
2021/05/11 05:45:46;;;;;;;3.37;2.58;;;;;;;20.54;27.05;100793.70;1841921;77;22728;-69
2021/05/11 05:48:28;;;;;;;5.85;2.42;;;;;;;20.67;26.78;100788.69;1811601;78;23565;-66
2021/05/11 05:51:15;;;;;;;6.55;2.77;;;;;;;20.77;27.14;100789.57;1838362;78;21665;-66
2021/05/11 05:53:50;;;;;;;3.70;2.58;;;;;;;21.07;26.23;100784.72;1805204;77;22599;-65
2021/05/11 05:56:24;;;;;;;3.70;2.25;;;;;;;21.08;25.91;100784.59;1807445;77;22889;-66
2021/05/11 05:58:58;;;;;;;4.87;2.90;;;;;;;21.01;25.78;100787.91;1856200;76;22793;-65
2021/05/11 06:01:35;;;;;;;3.58;2.30;;;;;;;20.93;26.03;100790.73;1878295;76;22329;-71
2021/05/11 06:04:13;;;;;;;2.83;2.30;;;;;;;20.92;26.28;100787.73;1861017;76;22635;-67
2021/05/11 06:07:00;;;;;;;2.50;1.80;;;;;;;20.87;26.65;100785.97;1815196;79;21582;-70
2021/05/11 06:09:34;;;;;;;2.40;2.20;;;;;;;20.94;26.74;100777.84;1803760;77;22460;-65
2021/05/11 06:12:27;;;;;;;4.60;2.17;;;;;;;21.05;26.80;100772.94;1835993;76;22225;-69
2021/05/11 06:17:13;;;;;;;5.25;2.25;;;;;;;21.07;27.30;100770.99;1876994;76;22789;-72
2021/05/11 06:17:50;;;;;;;3.80;2.10;;;;;;;21.16;27.29;100774.16;1838807;77;21617;-70
2021/05/11 06:20:30;;;;;;;2.65;2.42;;;;;;;21.46;27.41;100762.65;1791521;77;22348;-69
2021/05/11 06:23:05;;;;;;;3.85;2.47;;;;;;;21.76;27.26;100759.02;1840853;77;22418;-71
2021/05/11 06:25:44;;;;;;;3.10;2.65;;;;;;;21.89;26.77;100758.25;1846495;76;27726;-73
2021/05/11 06:28:32;;;;;;;2.75;2.40;;;;;;;21.90;26.62;100746.66;1842638;77;21515;-68
2021/05/11 06:31:06;;;;;;;3.45;2.40;;;;;;;21.97;26.59;100750.92;1832173;76;22454;-71
2021/05/11 06:33:41;;;;;;;4.17;2.35;;;;;;;22.04;26.76;100749.37;1842137;77;23268;-72
2021/05/11 06:36:16;;;;;;;3.50;2.42;;;;;;;22.16;26.79;100748.24;1878550;75;22790;-74
2021/05/11 06:39:15;;;;;;;3.22;2.22;;;;;;;22.21;26.47;100755.77;1889222;74;23151;-71
2021/05/11 06:42:00;;;;;;;5.00;2.40;;;;;;;22.01;26.54;100744.81;1834377;76;22644;-71
2021/05/11 06:48:02;;;;;;;;;;;;;;;;;;;;;
2021/05/11 06:53:11;;;;;;;2.92;2.27;;;;;;;22.07;26.69;100738.48;1831402;76;22261;-69
2021/05/11 06:55:43;;;;;;;2.60;2.40;;;;;;;21.95;27.09;100739.61;1874980;76;22630;-72
2021/05/11 06:58:18;;;;;;;3.30;3.00;;;;;;;21.86;27.27;100732.02;1780833;77;27889;-68
2021/05/11 07:01:06;;;;;;;3.08;2.55;;;;;;;21.84;27.60;100736.62;1767992;81;20930;-71
2021/05/11 07:03:41;;;;;;;3.35;2.77;;;;;;;22.06;27.58;100739.95;1848536;76;22468;-67
2021/05/11 07:06:23;;;;;;;3.52;2.47;;;;;;;22.06;27.26;100747.42;1845319;76;22251;-69
2021/05/11 07:09:04;;;;;;;3.02;2.60;;;;;;;22.01;27.65;100739.50;1848593;77;22385;-67
2021/05/11 07:14:22;;;;;;;3.12;2.12;;;;;;;22.28;27.46;100749.76;1838318;77;21618;-71
2021/05/11 07:17:03;;;;;;;2.42;1.87;;;;;;;22.51;27.49;100752.88;1890025;76;23098;-71
2021/05/11 07:19:44;;;;;;;3.47;2.27;;;;;;;22.73;26.91;100750.36;1845003;76;22517;-73
2021/05/11 07:22:24;;;;;;;4.08;2.10;;;;;;;22.68;26.63;100744.64;1848452;76;22606;-67
2021/05/11 07:25:11;;;;;;;3.87;1.98;;;;;;;22.54;27.45;100738.48;1847904;76;22691;-71
2021/05/11 07:28:58;;;;;;;;;;;;;;;;;;;;;
2021/05/11 07:31:43;;;;;;;2.17;1.98;;;;;;;22.73;27.32;100720.31;1866137;76;20951;-73
2021/05/11 07:34:20;;;;;;;2.12;1.80;;;;;;;22.75;27.14;100715.20;1834519;77;22296;-71
2021/05/11 07:37:00;;;;;;;4.28;2.10;;;;;;;22.70;27.09;100712.64;1884827;74;22635;-70
2021/05/11 07:39:47;;;;;;;2.77;1.80;;;;;;;22.57;27.55;100706.34;1897933;75;21004;-71
2021/05/11 07:42:21;;;;;;;6.42;2.47;;;;;;;22.54;27.73;100698.66;1847920;76;22319;-70
2021/05/11 07:44:59;;;;;;;2.50;1.77;;;;;;;22.74;28.02;100697.59;1811225;77;22416;-72
2021/05/11 08:01:54;;;;;;;4.95;1.80;;;;;;;22.78;27.56;100684.41;1838537;76;21819;-74
2021/05/11 08:10:53;;;;;;;5.22;1.62;;;;;;;22.62;28.28;100679.70;1879815;76;22211;-72
2021/05/11 08:16:31;;;;;;;1.90;1.80;;;;;;;22.34;29.10;100665.25;1847683;76;22900;-68
2021/05/11 08:28:00;;;;;;;2.77;1.77;;;;;;;22.23;29.44;100645.05;1848842;76;22304;-67
2021/05/11 08:30:35;;;;;;;1.92;1.50;;;;;;;22.24;29.77;100644.90;1853397;76;22593;-68
2021/05/11 08:33:09;;;;;;;1.80;1.65;;;;;;;22.31;29.63;100640.34;1841198;77;22601;-66
2021/05/11 08:35:43;;;;;;;2.08;1.75;;;;;;;22.35;29.53;100642.55;1789117;77;22316;-71
2021/05/11 08:38:34;;;;;;;2.70;1.62;;;;;;;22.39;29.86;100633.81;1886661;76;22697;-68
2021/05/11 08:41:28;;;;;;;2.42;1.80;;;;;;;22.67;29.07;100633.29;1832830;76;22488;-67
2021/05/11 08:44:10;;;;;;;3.10;2.00;;;;;;;22.74;28.69;100643.17;1865657;76;22444;-74
2021/05/11 08:46:48;;;;;;;2.12;1.90;;;;;;;22.71;28.95;100630.69;1832798;77;22794;-72
2021/05/11 08:49:24;;;;;;;2.15;1.70;;;;;;;22.74;28.97;100625.08;1848398;76;22716;-71
2021/05/11 08:55:13;;;;;;;2.37;1.72;;;;;;;22.74;29.42;100613.96;1884943;76;22719;-71
2021/05/11 09:09:38;;;;;;;1.75;1.62;;;;;;;22.28;30.53;100627.70;1847326;76;22473;-69
2021/05/11 09:30:15;;;;;;;3.15;1.85;;;;;;;21.90;31.58;100615.41;1884067;75;23273;-68
2021/05/11 09:45:18;;;;;;;1.62;1.52;;;;;;;21.56;32.32;100612.44;1842145;76;22758;-72
2021/05/11 09:56:31;;;;;;;2.30;2.10;;;;;;;21.42;33.02;100590.84;1888209;74;22511;-72
2021/05/11 10:32:19;;;;;;;2.72;2.00;;;;;;;21.74;33.66;100549.39;1890490;76;22641;-68
2021/05/11 10:43:53;;;;;;;2.55;1.77;;;;;;;21.86;33.96;100542.93;1822138;77;22620;-70
2021/05/11 10:49:01;;;;;;;2.50;1.90;;;;;;;21.96;33.52;100537.09;1852677;77;22280;-63
2021/05/11 10:51:36;;;;;;;3.42;2.05;;;;;;;21.99;33.77;100530.67;1887182;76;22438;-69
2021/05/11 10:54:47;;;;;;;5.35;2.37;;;;;;;21.98;34.20;100532.98;1815837;78;20936;-69
2021/05/11 10:57:50;;;;;;;7.25;2.35;;;;;;;22.06;33.90;100526.45;1819604;76;22627;-72
2021/05/11 11:03:28;;;;;;;3.22;1.90;;;;;;;22.13;33.80;100522.23;1831294;77;22441;-67
2021/05/11 11:06:04;;;;;;;4.12;2.20;;;;;;;22.15;33.51;100519.77;1871581;75;23272;-64
2021/05/11 11:08:45;;;;;;;4.42;1.98;;;;;;;22.15;34.20;100520.27;1842622;77;22480;-64
2021/05/11 11:11:20;;;;;;;3.12;1.82;;;;;;;22.19;33.96;100513.68;1798478;77;22714;-68
2021/05/11 11:14:07;;;;;;;4.15;1.72;;;;;;;22.18;34.26;100510.69;1768595;81;21147;-71
2021/05/11 11:16:44;;;;;;;5.85;1.90;;;;;;;22.27;33.96;100505.32;1844581;76;22650;-70
2021/05/11 11:19:18;;;;;;;7.15;2.42;;;;;;;22.31;33.87;100497.90;1846360;76;38202;-67
2021/05/11 11:25:06;;;;;;;8.85;2.30;;;;;;;22.46;33.86;100496.38;1801967;77;22385;-74
2021/05/11 11:27:41;;;;;;;3.30;1.90;;;;;;;22.48;34.17;100489.59;1840393;76;22446;-66
2021/05/11 11:30:21;;;;;;;5.60;1.60;;;;;;;22.50;33.58;100487.62;1789517;77;22417;-67
2021/05/11 11:33:08;;;;;;;7.45;2.30;;;;;;;22.48;34.02;100478.48;1768313;81;21597;-67
2021/05/11 11:35:42;;;;;;;3.00;1.87;;;;;;;22.56;33.86;100479.05;1850394;76;21894;-70
2021/05/11 11:38:25;;;;;;;4.55;1.70;;;;;;;22.59;33.80;100474.27;1865961;75;21889;-74
2021/05/11 11:41:00;;;;;;;2.58;1.72;;;;;;;22.61;33.86;100470.98;1848597;76;22304;-74
2021/05/11 11:43:36;;;;;;;7.12;2.00;;;;;;;22.65;33.99;100469.34;1856209;76;22253;-73
2021/05/11 11:46:10;;;;;;;5.28;2.15;;;;;;;22.67;33.67;100460.73;1885912;74;22919;-76
2021/05/11 11:49:03;;;;;;;4.58;1.80;;;;;;;22.68;33.80;100455.27;1874159;76;23210;-73
2021/05/11 11:51:43;;;;;;;3.87;2.67;;;;;;;22.68;34.03;100451.78;1869809;74;27648;-76
2021/05/11 12:00:00;;;;;;;6.05;2.33;;;;;;;22.85;33.75;100466.87;1837875;76;21931;-67
2021/05/11 12:02:35;;;;;;;5.08;1.67;;;;;;;22.87;33.43;100452.45;1880771;76;22742;-73
2021/05/11 12:05:11;;;;;;;4.92;2.00;;;;;;;22.88;33.32;100446.64;1843905;76;22133;-70
2021/05/11 12:08:04;;;;;;;4.67;1.90;;;;;;;22.84;33.78;100450.59;1809914;77;20997;-66
2021/05/11 12:10:37;;;;;;;5.62;2.20;;;;;;;22.89;33.29;100445.16;1800513;77;22327;-67
2021/05/11 12:13:29;;;;;;;7.70;1.90;;;;;;;22.89;33.51;100441.67;1875755;75;22355;-75
2021/05/11 12:16:24;;;;;;;2.77;1.87;;;;;;;22.89;33.71;100443.83;1855796;76;22366;-68
2021/05/11 12:19:08;;;;;;;4.90;1.90;;;;;;;22.93;33.87;100437.72;1831542;76;22993;-73
2021/05/11 12:22:06;;;;;;;7.45;1.90;;;;;;;22.97;34.09;100445.72;1859115;76;22560;-75
2021/05/11 12:24:44;;;;;;;5.12;2.42;;;;;;;23.02;33.65;100435.46;1793807;77;22499;-69
2021/05/11 12:27:22;;;;;;;4.40;1.82;;;;;;;23.05;33.78;100433.82;1839310;76;22857;-64
2021/05/11 12:30:11;;;;;;;3.37;2.20;;;;;;;23.06;33.61;100440.80;1855575;76;23264;-70
2021/05/11 12:32:47;;;;;;;9.30;2.05;;;;;;;23.09;33.23;100429.03;1836197;76;22723;-68
2021/05/11 12:35:21;;;;;;;6.70;2.25;;;;;;;23.11;33.30;100431.04;1871116;76;22429;-69
2021/05/11 12:38:04;;;;;;;3.40;1.80;;;;;;;23.12;33.01;100441.52;1835750;77;22389;-66
2021/05/11 12:43:42;;;;;;;8.80;1.98;;;;;;;23.11;32.86;100437.19;1818856;77;22399;-68
2021/05/11 12:46:36;;;;;;;5.90;1.75;;;;;;;23.10;33.10;100445.31;1844175;76;22677;-71
2021/05/11 12:49:17;;;;;;;7.17;2.00;;;;;;;23.11;33.38;100445.16;1844730;75;22214;-72
2021/05/11 12:51:57;;;;;;;3.52;1.98;;;;;;;23.15;33.29;100427.91;1800283;77;22847;-70
2021/05/11 12:54:50;;;;;;;7.35;2.10;;;;;;;23.16;33.24;100424.27;1789260;80;21047;-72
2021/05/11 12:57:41;;;;;;;6.10;2.00;;;;;;;23.22;33.54;100416.13;1842212;76;22208;-76
2021/05/11 13:00:16;;;;;;;6.75;2.22;;;;;;;23.25;33.51;100431.27;1873751;76;27742;-71
2021/05/11 13:03:32;;;;;;;6.97;1.90;;;;;;;23.24;33.05;100413.66;1890237;75;21348;-76
2021/05/11 13:33:09;;;;;;;10.65;2.65;;;;;;;23.49;33.24;100408.47;1879585;74;28364;-69
2021/05/11 13:35:31;;;;;;;12.78;3.12;;;;;;;23.52;32.87;100412.97;1862527;76;22049;-77
2021/05/11 13:38:12;;;;;;;6.70;2.87;;;;;;;23.54;32.89;100402.21;1798727;77;22717;-75
2021/05/11 13:40:48;;;;;;;3.62;2.15;;;;;;;23.52;33.06;100402.34;1840903;77;22694;-70
2021/05/11 13:43:22;;;;;;;4.67;2.37;;;;;;;23.51;33.35;100411.30;1832774;76;22342;-70
2021/05/11 13:46:09;;;;;;;7.60;2.60;;;;;;;23.48;33.36;100401.48;1793310;79;21016;-74
2021/05/11 13:48:49;;;;;;;3.85;1.75;;;;;;;23.51;33.61;100382.06;1846640;76;22294;-69
2021/05/11 13:51:30;;;;;;;4.08;2.08;;;;;;;23.52;33.55;100385.06;1821641;77;22404;-75
2021/05/11 13:54:12;;;;;;;2.98;2.00;;;;;;;23.52;33.67;100377.58;1871430;75;22348;-65
2021/05/11 14:02:49;;;;;;;6.72;2.15;;;;;;;23.52;33.84;100380.23;1839619;76;22354;-66
2021/05/11 14:05:33;;;;;;;10.53;2.17;;;;;;;23.49;33.73;100379.23;1718302;82;21678;-62
2021/05/11 14:08:07;;;;;;;6.05;2.37;;;;;;;23.51;34.09;100379.91;1842707;77;22401;-61
2021/05/11 14:10:42;;;;;;;3.98;2.22;;;;;;;23.53;34.51;100376.13;1852717;77;21933;-61
2021/05/11 14:13:22;;;;;;;8.60;2.10;;;;;;;23.54;34.33;100372.47;1848370;77;22058;-67
2021/05/11 14:15:56;;;;;;;2.75;2.00;;;;;;;23.55;34.22;100380.78;1887927;76;22031;-71
